Terminal Aerodrome Forecast
Issued by NWS

Home | Current Version | Previous Version | Text Only | Print | Product List | Glossary On
Versions: 1 2 3 4 5 6 7 8 9 10 11 12 13
000
FTAK31 PAJN 221700
TAFAGY
TAF
PAGY 221731Z 2218/2318 VRB03KT P6SM BKN200
     FM222100 21011KT P6SM SCT120 BKN200
     FM230000 21012KT P6SM BKN120
     FM230600 VRB03KT P6SM VCSH FEW070 BKN100
     FM231000 VRB03KT P6SM VCSH SCT070 OVC100
     FM231700 21005KT P6SM BKN100
      AMD LTD TO CLD VIS AND WIND=

USA.gov is the U.S. government's official web portal to all federal, state and local government web resources and services.